createdAt,value
2019-04-22T00:00:32.388Z,6.20
2019-04-22T00:02:59.820Z,5.15
2019-04-22T00:05:42.827Z,4.78
2019-04-22T00:08:18.148Z,5.25
2019-04-22T00:10:55.824Z,5.20
2019-04-22T00:13:26.229Z,5.42
2019-04-22T00:15:42.199Z,5.28
2019-04-22T00:18:25.950Z,5.12
2019-04-22T00:20:54.533Z,4.80
2019-04-22T00:28:36.582Z,5.20
2019-04-22T00:30:47.388Z,5.40
2019-04-22T00:33:29.091Z,4.80
2019-04-22T00:35:54.454Z,4.67
2019-04-22T00:38:31.532Z,4.75
2019-04-22T00:41:05.702Z,4.80
2019-04-22T00:43:46.242Z,5.22
2019-04-22T00:48:35.953Z,5.28
2019-04-22T00:51:06.342Z,5.47
2019-04-22T00:53:35.374Z,5.60
2019-04-22T00:56:10.633Z,5.70
2019-04-22T01:01:17.016Z,5.33
2019-04-22T01:03:46.214Z,5.17
2019-04-22T01:06:13.063Z,5.70
2019-04-22T01:08:48.151Z,5.62
2019-04-22T01:11:13.350Z,5.92
2019-04-22T01:13:42.491Z,5.95
2019-04-22T01:16:13.794Z,5.20
2019-04-22T01:18:37.669Z,5.60
2019-04-22T01:21:17.054Z,5.62
2019-04-22T01:23:34.522Z,5.87
2019-04-22T01:26:05.124Z,5.30
2019-04-22T01:28:34.276Z,5.75
2019-04-22T01:38:36.571Z,5.30
2019-04-22T01:41:20.198Z,5.53
2019-04-22T01:43:56.851Z,5.28
2019-04-22T01:46:18.388Z,5.65
2019-04-22T01:48:44.897Z,5.67
2019-04-22T01:51:07.623Z,5.67
2019-04-22T01:53:42.471Z,5.58
2019-04-22T01:56:17.495Z,5.85
2019-04-22T01:58:33.510Z,5.70
2019-04-22T02:01:04.901Z,5.58
2019-04-22T02:03:40.906Z,5.53
2019-04-22T02:06:18.032Z,5.92
2019-04-22T02:08:44.935Z,5.53
2019-04-22T02:11:17.335Z,5.37
2019-04-22T02:13:43.086Z,6.15
2019-04-22T02:16:15.147Z,5.90
2019-04-22T02:21:08.846Z,5.45
2019-04-22T02:23:51.215Z,6.22
2019-04-22T02:26:15.542Z,5.50
2019-04-22T02:31:25.845Z,6.28
2019-04-22T02:41:23.083Z,5.85
2019-04-22T02:46:33.154Z,6.45
2019-04-22T02:51:18.795Z,6.55
2019-04-22T02:54:15.182Z,6.37
2019-04-22T02:58:58.726Z,6.08
2019-04-22T03:01:25.672Z,5.83
2019-04-22T03:06:24.693Z,5.63
2019-04-22T03:08:51.309Z,5.80
2019-04-22T03:16:17.734Z,5.78
2019-04-22T03:18:55.057Z,5.50
2019-04-22T03:21:11.640Z,5.67
2019-04-22T03:26:22.549Z,5.62
2019-04-22T03:35:09.625Z,5.60
2019-04-22T03:42:05.161Z,6.00
2019-04-22T03:47:07.115Z,6.25
2019-04-22T03:54:29.604Z,6.08
2019-04-22T03:57:18.318Z,6.17
2019-04-22T03:59:28.682Z,5.97
2019-04-22T04:01:56.941Z,5.62
2019-04-22T04:04:24.219Z,5.62
2019-04-22T04:06:59.703Z,5.45
2019-04-22T04:12:01.979Z,5.33
2019-04-22T04:14:35.889Z,5.83
2019-04-22T04:16:56.276Z,6.53
2019-04-22T04:19:30.353Z,6.15
2019-04-22T04:24:32.020Z,5.95
2019-04-22T04:31:59.050Z,6.30
2019-04-22T04:34:43.165Z,6.80
2019-04-22T04:36:54.854Z,6.87
2019-04-22T04:42:07.746Z,5.87
2019-04-22T04:44:23.558Z,5.12
2019-04-22T04:47:05.987Z,5.40
2019-04-22T04:51:49.125Z,5.63
2019-04-22T04:59:28.125Z,8.35
2019-04-22T05:16:43.065Z,7.30
2019-04-22T05:21:31.041Z,12.75
2019-04-22T05:39:01.808Z,6.03
2019-04-22T05:41:32.377Z,6.10
2019-04-22T05:44:05.072Z,5.80
2019-04-22T05:46:32.729Z,5.90
2019-04-22T05:49:01.092Z,6.00
2019-04-22T05:51:31.229Z,6.10
2019-04-22T05:54:01.445Z,5.70
2019-04-22T05:56:34.817Z,5.72
2019-04-22T05:59:02.417Z,5.53
2019-04-22T06:01:38.878Z,4.55
2019-04-22T06:04:05.389Z,5.45
2019-04-22T06:06:39.940Z,5.60
2019-04-22T06:09:10.458Z,5.47
2019-04-22T06:11:29.608Z,4.92
2019-04-22T06:14:01.511Z,5.23
2019-04-22T06:16:39.524Z,4.70
2019-04-22T06:19:07.603Z,5.20
2019-04-22T06:21:38.733Z,4.97
2019-04-22T06:24:11.155Z,5.92
2019-04-22T06:26:48.914Z,5.72
2019-04-22T06:29:09.293Z,5.72
2019-04-22T06:31:54.448Z,5.90
2019-04-22T06:36:37.812Z,5.10
2019-04-22T06:38:59.144Z,5.40
2019-04-22T06:41:39.092Z,5.17
2019-04-22T06:44:09.075Z,5.23
2019-04-22T06:46:37.816Z,5.35
2019-04-22T06:49:03.639Z,5.40
2019-04-22T06:51:32.922Z,5.15
2019-04-22T06:54:03.346Z,5.40
2019-04-22T06:56:27.518Z,5.03
2019-04-22T07:38:48.591Z,4.75
2019-04-22T07:41:23.091Z,5.67
2019-04-22T07:44:07.702Z,4.83
2019-04-22T07:46:18.649Z,5.15
2019-04-22T07:48:56.553Z,5.42
2019-04-22T07:51:23.462Z,4.80
2019-04-22T07:53:52.279Z,4.30
2019-04-22T07:56:24.372Z,4.67
2019-04-22T07:58:51.845Z,5.05
2019-04-22T08:04:00.965Z,5.40
2019-04-22T08:06:24.668Z,4.78
2019-04-22T08:08:56.618Z,5.20
2019-04-22T08:11:37.581Z,4.83
2019-04-22T08:13:46.631Z,4.63
2019-04-22T08:16:16.401Z,5.50
2019-04-22T08:18:47.416Z,5.22
2019-04-22T08:21:16.689Z,4.87
2019-04-22T08:23:50.894Z,5.23
2019-04-22T08:26:19.333Z,4.17
2019-04-22T08:28:53.312Z,4.87
2019-04-22T08:31:20.447Z,4.77
2019-04-22T08:51:18.518Z,5.00
2019-04-22T08:53:51.880Z,5.17
2019-04-22T08:56:26.733Z,4.95
2019-04-22T09:01:17.407Z,4.90
2019-04-22T09:03:46.909Z,4.67
2019-04-22T09:06:19.835Z,4.28
2019-04-22T09:08:48.732Z,4.70
2019-04-22T09:11:19.863Z,4.83
2019-04-22T09:13:50.100Z,4.33
2019-04-22T09:16:20.790Z,4.90
2019-04-22T09:18:48.323Z,4.90
2019-04-22T09:21:18.592Z,4.50
2019-04-22T09:26:18.524Z,5.50
2019-04-22T09:28:48.794Z,4.73
2019-04-22T09:31:11.389Z,5.40
2019-04-22T09:33:45.958Z,4.53
2019-04-22T09:36:16.211Z,4.83
2019-04-22T09:38:41.126Z,4.97
2019-04-22T09:41:13.973Z,4.33
2019-04-22T09:43:47.137Z,4.53
2019-04-22T09:46:19.731Z,4.47
2019-04-22T09:48:43.459Z,4.80
2019-04-22T09:51:12.005Z,4.53
2019-04-22T09:53:45.522Z,4.53
2019-04-22T09:56:13.682Z,4.12
2019-04-22T09:58:44.652Z,4.55
2019-04-22T10:01:24.552Z,3.75
2019-04-22T10:03:53.438Z,3.37
2019-04-22T10:11:37.702Z,4.47
2019-04-22T10:14:05.654Z,3.90
2019-04-22T10:21:47.888Z,3.77
2019-04-22T10:26:39.456Z,4.50
2019-04-22T10:31:38.166Z,4.25
2019-04-22T10:33:56.099Z,4.12
2019-04-22T10:36:11.099Z,3.90
2019-04-22T10:38:48.712Z,4.65
2019-04-22T10:41:16.745Z,6.87
2019-04-22T10:43:45.369Z,6.60
2019-04-22T10:46:13.868Z,4.45
2019-04-22T10:48:42.128Z,4.05
2019-04-22T10:51:16.995Z,5.80
2019-04-22T10:53:45.471Z,4.05
2019-04-22T10:56:13.161Z,3.62
2019-04-22T10:58:40.893Z,4.33
2019-04-22T11:01:09.688Z,4.50
2019-04-22T11:03:37.546Z,3.85
2019-04-22T11:06:05.644Z,4.42
2019-04-22T11:08:42.430Z,4.80
2019-04-22T11:11:16.874Z,3.72
2019-04-22T11:13:34.113Z,3.95
2019-04-22T11:16:03.597Z,4.03
2019-04-22T11:18:31.689Z,4.17
2019-04-22T11:20:59.900Z,3.90
2019-04-22T11:23:28.792Z,3.92
2019-04-22T11:25:57.719Z,4.35
2019-04-22T11:28:27.917Z,3.83
2019-04-22T11:30:56.448Z,4.05
2019-04-22T11:33:24.810Z,3.87
2019-04-22T11:35:53.218Z,3.90
2019-04-22T11:38:22.672Z,3.92
2019-04-22T11:40:53.981Z,4.10
2019-04-22T11:43:21.915Z,3.83
2019-04-22T11:45:51.126Z,4.42
2019-04-22T11:48:19.556Z,3.77
2019-04-22T11:50:48.139Z,3.92
2019-04-22T11:53:16.701Z,3.90
2019-04-22T11:55:45.013Z,4.35
2019-04-22T11:58:12.963Z,4.60
2019-04-22T12:00:41.303Z,4.25
2019-04-22T12:03:09.322Z,3.45
2019-04-22T12:05:39.627Z,3.55
2019-04-22T12:08:09.118Z,3.72
2019-04-22T12:10:44.033Z,4.20
2019-04-22T12:13:12.392Z,3.98
2019-04-22T12:15:42.913Z,3.90
2019-04-22T12:18:13.080Z,3.40
2019-04-22T12:20:41.452Z,4.15
2019-04-22T12:23:09.577Z,3.42
2019-04-22T12:25:47.681Z,3.33
2019-04-22T12:28:08.961Z,3.72
2019-04-22T12:30:37.381Z,3.80
2019-04-22T12:33:10.546Z,3.95
2019-04-22T12:35:36.847Z,3.40
2019-04-22T12:38:08.181Z,3.72
2019-04-22T12:40:46.673Z,3.80
2019-04-22T12:43:08.666Z,2.98
2019-04-22T12:45:38.242Z,3.35
2019-04-22T12:48:06.443Z,3.30
2019-04-22T12:50:38.461Z,3.08
2019-04-22T12:53:10.400Z,3.65
2019-04-22T12:55:34.420Z,2.90
2019-04-22T12:58:02.923Z,3.58
2019-04-22T13:00:32.243Z,3.02
2019-04-22T13:03:01.130Z,3.00
2019-04-22T13:05:29.244Z,2.80
2019-04-22T13:07:57.837Z,3.75
2019-04-22T13:10:38.633Z,3.22
2019-04-22T13:12:58.671Z,3.00
2019-04-22T13:15:26.792Z,3.20
2019-04-22T13:18:05.795Z,3.45
2019-04-22T13:20:24.438Z,2.90
2019-04-22T13:22:52.787Z,2.67
2019-04-22T13:25:23.309Z,2.87
2019-04-22T13:27:51.163Z,3.47
2019-04-22T13:30:21.029Z,3.72
2019-04-22T13:32:49.166Z,3.12
2019-04-22T13:35:19.945Z,3.25
2019-04-22T13:37:48.953Z,3.37
2019-04-22T13:40:19.453Z,3.70
2019-04-22T13:42:51.077Z,3.30
2019-04-22T13:45:22.193Z,2.50
2019-04-22T13:48:08.787Z,3.35
2019-04-22T13:53:34.324Z,3.45
2019-04-22T13:58:02.614Z,3.22
2019-04-22T14:00:24.961Z,3.62
2019-04-22T14:03:10.885Z,2.87
2019-04-22T14:05:40.561Z,2.70
2019-04-22T14:08:10.249Z,2.98
2019-04-22T14:10:38.617Z,2.30
2019-04-22T14:13:07.897Z,2.72
2019-04-22T14:15:36.195Z,2.60
2019-04-22T14:18:05.280Z,3.75
2019-04-22T14:20:34.440Z,4.08
2019-04-22T14:23:04.042Z,4.45
2019-04-22T14:25:32.661Z,2.93
2019-04-22T14:28:06.111Z,2.55
2019-04-22T14:30:34.701Z,3.10
2019-04-22T14:33:04.919Z,2.60
2019-04-22T14:35:33.929Z,2.33
2019-04-22T14:38:04.222Z,3.22
2019-04-22T14:40:32.918Z,2.50
2019-04-22T14:43:25.248Z,3.00
2019-04-22T14:46:05.487Z,2.47
2019-04-22T14:48:33.594Z,2.12
2019-04-22T14:53:23.543Z,3.10
2019-04-22T14:55:33.280Z,2.52
2019-04-22T14:58:01.149Z,2.67
2019-04-22T15:00:29.601Z,2.52
2019-04-22T15:02:57.572Z,2.92
2019-04-22T15:05:28.233Z,2.58
2019-04-22T15:07:57.189Z,2.62
2019-04-22T15:10:26.226Z,2.98
2019-04-22T15:12:57.397Z,2.37
2019-04-22T15:16:01.086Z,3.12
2019-04-22T15:19:07.473Z,2.20
2019-04-22T15:21:40.954Z,2.58
2019-04-22T15:24:25.199Z,2.70
2019-04-22T15:26:56.177Z,2.52
2019-04-22T15:29:25.359Z,2.85
2019-04-22T15:31:55.718Z,2.15
2019-04-22T15:34:24.998Z,2.15
2019-04-22T15:36:53.923Z,2.00
2019-04-22T15:39:23.206Z,2.22
2019-04-22T15:42:00.371Z,1.70
2019-04-22T15:44:21.981Z,1.90
2019-04-22T15:46:51.021Z,1.85
2019-04-22T15:49:20.229Z,1.90
2019-04-22T15:51:48.943Z,2.95
2019-04-22T15:54:17.181Z,2.33
2019-04-22T15:56:44.843Z,2.52
2019-04-22T15:59:32.949Z,2.17
2019-04-22T16:01:42.912Z,2.00
2019-04-22T16:04:12.652Z,1.72
2019-04-22T16:06:41.153Z,1.60
2019-04-22T16:09:11.108Z,2.05
2019-04-22T16:11:40.534Z,2.05
2019-04-22T16:14:08.803Z,2.02
2019-04-22T16:16:37.162Z,2.20
2019-04-22T16:19:06.644Z,2.00
2019-04-22T16:21:45.528Z,1.80
2019-04-22T16:24:34.067Z,2.22
2019-04-22T16:27:09.704Z,1.90
2019-04-22T16:29:38.949Z,1.60
2019-04-22T16:32:07.461Z,1.70
2019-04-22T16:34:36.043Z,2.10
2019-04-22T16:37:04.996Z,2.20
2019-04-22T16:39:33.136Z,2.20
2019-04-22T16:42:00.862Z,2.17
2019-04-22T16:44:30.375Z,2.50
2019-04-22T16:46:59.463Z,2.10
2019-04-22T16:49:27.698Z,2.10
2019-04-22T16:51:56.533Z,2.20
2019-04-22T16:54:27.812Z,1.80
2019-04-22T16:56:55.627Z,2.15
2019-04-22T16:59:24.541Z,2.10
2019-04-22T17:02:18.895Z,2.25
2019-04-22T17:05:05.628Z,2.05
2019-04-22T17:07:34.142Z,2.02
2019-04-22T17:10:03.848Z,2.15
2019-04-22T17:12:44.353Z,1.98
2019-04-22T17:15:08.031Z,2.00
2019-04-22T17:17:33.316Z,2.30
2019-04-22T17:20:01.038Z,2.50
2019-04-22T17:22:29.534Z,1.98
2019-04-22T17:24:58.244Z,2.30
2019-04-22T17:27:26.662Z,2.50
2019-04-22T17:29:54.769Z,2.35
2019-04-22T17:32:24.951Z,2.20
2019-04-22T17:34:53.833Z,2.27
2019-04-22T17:37:26.297Z,2.52
2019-04-22T17:40:09.732Z,2.20
2019-04-22T17:42:42.494Z,2.47
2019-04-22T17:45:22.118Z,2.20
2019-04-22T17:48:12.679Z,2.22
2019-04-22T17:50:48.481Z,2.20
2019-04-22T17:53:23.084Z,2.17
2019-04-22T17:55:50.620Z,2.30
2019-04-22T18:00:36.584Z,2.20
2019-04-22T18:03:05.734Z,2.40
2019-04-22T18:10:42.288Z,2.30
2019-04-22T18:13:23.138Z,2.50
2019-04-22T18:15:45.168Z,2.40
2019-04-22T18:18:12.328Z,2.58
2019-04-22T18:20:38.172Z,2.40
2019-04-22T18:23:01.512Z,2.75
2019-04-22T18:25:36.417Z,2.62
2019-04-22T18:28:18.803Z,3.15
2019-04-22T18:30:35.260Z,2.98
2019-04-22T18:33:15.852Z,2.63
2019-04-22T18:35:42.171Z,2.98
2019-04-22T18:38:21.926Z,4.45
2019-04-22T18:40:43.322Z,4.97
2019-04-22T18:43:10.015Z,3.35
2019-04-22T18:45:46.858Z,2.65
2019-04-22T18:48:06.486Z,4.03
2019-04-22T18:50:52.558Z,2.85
2019-04-22T18:53:38.764Z,3.12
2019-04-22T18:56:16.481Z,3.20
2019-04-22T18:58:36.689Z,2.92
2019-04-22T19:00:54.839Z,2.80
2019-04-22T19:03:28.300Z,3.87
2019-04-22T19:06:25.994Z,3.42
2019-04-22T19:11:27.159Z,3.65
2019-04-22T19:14:01.052Z,3.85
2019-04-22T19:18:45.918Z,3.08
2019-04-22T19:21:16.089Z,3.47
2019-04-22T19:23:49.161Z,3.15
2019-04-22T19:26:30.848Z,2.30
2019-04-22T19:28:49.772Z,3.02
2019-04-22T19:31:27.066Z,2.98
2019-04-22T19:33:56.222Z,2.83
2019-04-22T19:36:20.546Z,3.17
2019-04-22T19:41:24.150Z,2.80
2019-04-22T19:43:50.296Z,2.87
2019-04-22T19:46:16.446Z,3.40
2019-04-22T19:48:49.719Z,3.02
2019-04-22T19:51:23.500Z,3.22
2019-04-22T19:53:51.992Z,3.30
2019-04-22T19:56:14.387Z,3.42
2019-04-22T19:58:41.473Z,3.72
2019-04-22T20:01:41.634Z,4.05
2019-04-22T20:04:29.295Z,3.42
2019-04-22T20:06:57.633Z,3.05
2019-04-22T20:12:00.700Z,3.90
2019-04-22T20:14:35.786Z,3.52
2019-04-22T20:16:54.432Z,3.37
2019-04-22T20:19:41.562Z,3.67
2019-04-22T20:22:03.515Z,2.75
2019-04-22T20:24:18.793Z,3.90
2019-04-22T20:27:10.585Z,4.23
2019-04-22T20:29:41.745Z,4.35
2019-04-22T20:32:05.461Z,3.95
2019-04-22T20:34:38.069Z,3.83
2019-04-22T20:37:10.635Z,4.20
2019-04-22T20:39:39.476Z,3.77
2019-04-22T20:42:21.356Z,3.47
2019-04-22T20:44:40.394Z,3.83
2019-04-22T20:47:05.867Z,2.62
2019-04-22T20:49:36.691Z,3.90
2019-04-22T20:52:13.651Z,3.85
2019-04-22T20:54:39.120Z,3.67
2019-04-22T20:57:05.913Z,3.90
2019-04-22T20:59:32.753Z,3.35
2019-04-22T21:02:03.722Z,3.77
2019-04-22T21:07:03.745Z,4.12
2019-04-22T21:09:35.409Z,3.85
2019-04-22T21:12:02.252Z,4.30
2019-04-22T21:14:28.069Z,4.00
2019-04-22T21:17:08.070Z,3.80
2019-04-22T21:19:40.365Z,4.12
2019-04-22T21:22:08.077Z,4.10
2019-04-22T21:24:33.039Z,4.12
2019-04-22T21:27:12.101Z,3.40
2019-04-22T21:29:30.866Z,3.90
2019-04-22T21:32:07.926Z,3.25
2019-04-22T21:34:40.783Z,3.62
2019-04-22T21:37:07.565Z,4.05
2019-04-22T21:39:30.224Z,4.37
2019-04-22T21:41:58.891Z,4.10
2019-04-22T21:44:33.955Z,3.98
2019-04-22T21:47:09.941Z,3.55
2019-04-22T21:49:35.643Z,3.50
2019-04-22T21:52:06.446Z,4.20
2019-04-22T21:54:45.497Z,5.00
2019-04-22T22:02:28.553Z,4.28
2019-04-22T22:04:51.200Z,4.25
2019-04-22T22:07:13.959Z,4.50
2019-04-22T22:09:54.185Z,4.45
2019-04-22T22:12:26.385Z,4.77
2019-04-22T22:15:03.133Z,4.23
2019-04-22T22:17:28.243Z,4.75
2019-04-22T22:19:54.519Z,4.45
2019-04-22T22:22:42.194Z,4.45
2019-04-22T22:24:57.233Z,5.20
2019-04-22T22:27:33.473Z,4.17
2019-04-22T22:30:15.969Z,4.20
2019-04-22T22:32:32.432Z,5.40
2019-04-22T22:34:58.782Z,4.95
2019-04-22T22:37:16.953Z,4.37
2019-04-22T22:39:48.207Z,4.58
2019-04-22T22:42:10.854Z,4.30
2019-04-22T22:47:27.353Z,4.45
2019-04-22T22:49:56.542Z,5.28
2019-04-22T22:54:58.863Z,4.78
2019-04-22T22:59:55.189Z,4.90
2019-04-22T23:02:25.841Z,4.33
2019-04-22T23:04:57.984Z,5.40
2019-04-22T23:07:28.877Z,4.90
2019-04-22T23:09:53.789Z,4.78
2019-04-22T23:19:38.208Z,4.40
2019-04-22T23:22:16.581Z,4.60
2019-04-22T23:25:19.161Z,4.03
2019-04-22T23:27:44.502Z,5.35
2019-04-22T23:30:25.462Z,5.80
2019-04-22T23:33:03.499Z,5.67
2019-04-22T23:35:36.951Z,5.20
2019-04-22T23:38:13.658Z,5.22
2019-04-22T23:40:47.765Z,5.05
2019-04-22T23:45:50.197Z,5.22
2019-04-22T23:48:27.108Z,4.17
2019-04-22T23:51:09.358Z,4.67
2019-04-22T23:56:08.140Z,5.17
